createdAt,value
2023-01-26T00:04:54.000Z,101.08
2023-01-26T00:09:54.000Z,101.19
2023-01-26T00:14:54.000Z,101.25
2023-01-26T00:19:54.000Z,101.36
2023-01-26T00:24:54.000Z,101.44
2023-01-26T00:29:54.000Z,101.67
2023-01-26T00:34:54.000Z,101.82
2023-01-26T00:39:54.000Z,101.96
2023-01-26T00:44:54.000Z,102.02
2023-01-26T00:49:54.000Z,102.08
2023-01-26T00:54:54.000Z,101.85
2023-01-26T00:59:54.000Z,101.85
2023-01-26T01:04:54.000Z,101.85
2023-01-26T01:09:54.000Z,101.87
2023-01-26T01:14:54.000Z,101.99
2023-01-26T01:19:54.000Z,102.28
2023-01-26T01:24:54.000Z,102.37
2023-01-26T01:29:54.000Z,102.54
2023-01-26T01:34:54.000Z,102.71
2023-01-26T01:39:54.000Z,102.65
2023-01-26T01:44:54.000Z,102.76
2023-01-26T01:49:54.000Z,102.54
2023-01-26T01:54:54.000Z,102.54
2023-01-26T01:59:54.000Z,102.48
2023-01-26T02:04:54.000Z,102.48
2023-01-26T02:09:54.000Z,102.54
2023-01-26T02:14:54.000Z,102.54
2023-01-26T02:19:54.000Z,102.54
2023-01-26T02:24:54.000Z,102.48
2023-01-26T02:29:54.000Z,102.48
2023-01-26T02:34:54.000Z,102.42
2023-01-26T02:39:54.000Z,102.35
2023-01-26T02:44:54.000Z,102.39
2023-01-26T02:49:54.000Z,102.00
2023-01-26T02:54:54.000Z,102.09
2023-01-26T02:59:54.000Z,102.25
2023-01-26T03:04:54.000Z,102.45
2023-01-26T03:09:54.000Z,102.43
2023-01-26T03:14:55.000Z,102.54
2023-01-26T03:19:54.000Z,102.54
2023-01-26T03:24:55.000Z,102.65
2023-01-26T03:29:55.000Z,102.54
2023-01-26T03:34:54.000Z,102.51
2023-01-26T03:39:54.000Z,102.39
2023-01-26T03:44:55.000Z,102.20
2023-01-26T03:49:54.000Z,102.28
2023-01-26T03:54:54.000Z,102.00
2023-01-26T03:59:54.000Z,101.82
2023-01-26T04:04:54.000Z,101.79
2023-01-26T04:09:54.000Z,101.40
2023-01-26T04:14:54.000Z,100.80
2023-01-26T04:19:54.000Z,99.71
2023-01-26T04:24:54.000Z,99.96
2023-01-26T04:29:54.000Z,99.76
2023-01-26T04:34:54.000Z,99.56
2023-01-26T04:39:54.000Z,99.59
2023-01-26T04:44:54.000Z,99.74
2023-01-26T04:49:54.000Z,99.87
2023-01-26T04:54:54.000Z,99.90
2023-01-26T04:59:54.000Z,99.90
2023-01-26T05:04:54.000Z,99.87
2023-01-26T05:09:54.000Z,100.22
2023-01-26T05:14:54.000Z,100.45
2023-01-26T05:19:54.000Z,100.45
2023-01-26T05:24:54.000Z,100.57
2023-01-26T05:29:54.000Z,100.62
2023-01-26T05:34:54.000Z,100.62
2023-01-26T05:39:54.000Z,100.70
2023-01-26T05:44:54.000Z,100.68
2023-01-26T05:49:54.000Z,100.65
2023-01-26T05:54:54.000Z,100.68
2023-01-26T05:59:54.000Z,100.80
2023-01-26T06:04:54.000Z,100.80
2023-01-26T06:09:54.000Z,100.80
2023-01-26T06:14:54.000Z,100.82
2023-01-26T06:19:54.000Z,100.93
2023-01-26T06:24:54.000Z,101.03
2023-01-26T06:29:54.000Z,100.74
2023-01-26T06:34:54.000Z,99.97
2023-01-26T06:39:54.000Z,100.17
2023-01-26T06:44:54.000Z,100.28
2023-01-26T06:49:54.000Z,100.45
2023-01-26T06:54:54.000Z,100.59
2023-01-26T06:59:54.000Z,100.00
2023-01-26T07:04:54.000Z,100.17
2023-01-26T07:09:54.000Z,100.22
2023-01-26T07:14:54.000Z,100.45
2023-01-26T07:19:54.000Z,100.17
2023-01-26T07:24:54.000Z,100.11
2023-01-26T07:29:54.000Z,100.11
2023-01-26T07:34:54.000Z,100.14
2023-01-26T07:39:54.000Z,100.11
2023-01-26T07:44:54.000Z,99.96
2023-01-26T07:49:54.000Z,99.68
2023-01-26T07:54:54.000Z,99.64
2023-01-26T07:59:54.000Z,99.45
2023-01-26T08:04:54.000Z,99.36
2023-01-26T08:09:54.000Z,99.36
2023-01-26T08:14:54.000Z,99.13
2023-01-26T08:19:54.000Z,98.99
2023-01-26T08:24:55.000Z,98.64
2023-01-26T08:29:54.000Z,98.56
2023-01-26T08:34:54.000Z,98.24
2023-01-26T08:39:54.000Z,97.21
2023-01-26T08:44:54.000Z,97.18
2023-01-26T08:49:55.000Z,96.75
2023-01-26T08:54:54.000Z,96.55
2023-01-26T08:59:54.000Z,96.49
2023-01-26T09:04:54.000Z,96.12
2023-01-26T09:09:54.000Z,96.09
2023-01-26T09:14:54.000Z,96.41
2023-01-26T09:19:54.000Z,96.83
2023-01-26T09:24:54.000Z,96.49
2023-01-26T09:29:54.000Z,96.17
2023-01-26T09:34:54.000Z,96.06
2023-01-26T09:39:55.000Z,95.85
2023-01-26T09:44:54.000Z,95.62
2023-01-26T09:49:54.000Z,95.83
2023-01-26T09:54:54.000Z,96.57
2023-01-26T09:59:54.000Z,96.52
2023-01-26T10:04:54.000Z,95.88
2023-01-26T10:09:54.000Z,95.84
2023-01-26T10:14:54.000Z,95.91
2023-01-26T10:19:54.000Z,95.84
2023-01-26T10:24:54.000Z,95.79
2023-01-26T10:29:54.000Z,95.53
2023-01-26T10:34:55.000Z,95.96
2023-01-26T10:39:54.000Z,95.79
2023-01-26T10:44:55.000Z,95.76
2023-01-26T10:49:54.000Z,95.84
2023-01-26T10:54:55.000Z,95.27
2023-01-26T10:59:54.000Z,94.84
2023-01-26T11:04:55.000Z,95.33
2023-01-26T11:09:54.000Z,95.01
2023-01-26T11:14:54.000Z,95.16
2023-01-26T11:19:54.000Z,95.47
2023-01-26T11:24:55.000Z,95.44
2023-01-26T11:29:55.000Z,95.38
2023-01-26T11:34:55.000Z,94.95
2023-01-26T11:39:54.000Z,94.84
2023-01-26T11:44:55.000Z,94.46
2023-01-26T11:49:55.000Z,94.56
2023-01-26T11:54:54.000Z,94.23
2023-01-26T11:59:55.000Z,94.04
2023-01-26T12:04:55.000Z,94.07
2023-01-26T12:09:55.000Z,94.52
2023-01-26T12:14:55.000Z,94.75
2023-01-26T12:19:55.000Z,94.75
2023-01-26T12:24:55.000Z,94.12
2023-01-26T12:29:55.000Z,94.61
2023-01-26T12:34:55.000Z,95.15
2023-01-26T12:39:55.000Z,95.15
2023-01-26T12:44:55.000Z,95.12
2023-01-26T12:49:55.000Z,94.72
2023-01-26T12:54:55.000Z,94.84
2023-01-26T12:59:55.000Z,94.64
2023-01-26T13:04:55.000Z,94.41
2023-01-26T13:09:55.000Z,94.67
2023-01-26T13:14:55.000Z,94.84
2023-01-26T13:19:55.000Z,94.78
2023-01-26T13:24:55.000Z,94.75
2023-01-26T13:29:55.000Z,94.64
2023-01-26T13:34:55.000Z,94.52
2023-01-26T13:40:10.000Z,94.61
2023-01-26T13:44:55.000Z,93.95
2023-01-26T13:49:55.000Z,94.07
2023-01-26T13:54:55.000Z,94.84
2023-01-26T13:59:55.000Z,94.18
2023-01-26T14:04:55.000Z,94.67
2023-01-26T14:09:55.000Z,94.22
2023-01-26T14:14:55.000Z,93.79
2023-01-26T14:19:55.000Z,94.04
2023-01-26T14:24:55.000Z,93.53
2023-01-26T14:29:55.000Z,93.99
2023-01-26T14:34:55.000Z,94.53
2023-01-26T14:39:55.000Z,94.42
2023-01-26T14:44:55.000Z,94.68
2023-01-26T14:49:55.000Z,94.45
2023-01-26T14:54:55.000Z,94.16
2023-01-26T14:59:55.000Z,94.65
2023-01-26T15:04:55.000Z,94.45
2023-01-26T15:09:55.000Z,94.25
2023-01-26T15:14:55.000Z,94.42
2023-01-26T15:19:55.000Z,94.82
2023-01-26T15:24:55.000Z,94.82
2023-01-26T15:29:55.000Z,95.17
2023-01-26T15:34:55.000Z,94.91
2023-01-26T15:39:55.000Z,94.99
2023-01-26T15:44:55.000Z,95.28
2023-01-26T15:49:55.000Z,95.09
2023-01-26T15:54:55.000Z,95.14
2023-01-26T15:59:55.000Z,95.40
2023-01-26T16:04:55.000Z,95.35
2023-01-26T16:09:55.000Z,95.43
2023-01-26T16:14:55.000Z,95.55
2023-01-26T16:19:55.000Z,95.84
2023-01-26T16:24:55.000Z,95.78
2023-01-26T16:29:55.000Z,95.58
2023-01-26T16:34:55.000Z,95.95
2023-01-26T16:39:55.000Z,95.37
2023-01-26T16:44:55.000Z,95.23
2023-01-26T16:49:55.000Z,95.43
2023-01-26T16:54:55.000Z,95.58
2023-01-26T16:59:55.000Z,95.44
2023-01-26T17:04:55.000Z,95.39
2023-01-26T17:09:55.000Z,95.84
2023-01-26T17:14:55.000Z,95.73
2023-01-26T17:19:55.000Z,95.24
2023-01-26T17:24:55.000Z,95.16
2023-01-26T17:29:55.000Z,95.65
2023-01-26T17:34:55.000Z,95.39
2023-01-26T17:39:55.000Z,95.73
2023-01-26T17:44:55.000Z,95.59
2023-01-26T17:49:55.000Z,95.99
2023-01-26T17:54:55.000Z,95.27
2023-01-26T17:59:55.000Z,95.10
2023-01-26T18:04:55.000Z,95.65
2023-01-26T18:09:55.000Z,95.88
2023-01-26T18:14:55.000Z,95.70
2023-01-26T18:19:55.000Z,95.65
2023-01-26T18:24:55.000Z,95.62
2023-01-26T18:29:55.000Z,95.76
2023-01-26T18:34:55.000Z,95.62
2023-01-26T18:39:55.000Z,95.93
2023-01-26T18:44:55.000Z,95.99
2023-01-26T18:49:55.000Z,96.22
2023-01-26T18:54:55.000Z,96.19
2023-01-26T18:59:55.000Z,95.88
2023-01-26T19:04:55.000Z,96.19
2023-01-26T19:09:56.000Z,96.39
2023-01-26T19:14:55.000Z,96.47
2023-01-26T19:19:55.000Z,96.53
2023-01-26T19:24:55.000Z,96.70
2023-01-26T19:29:56.000Z,96.45
2023-01-26T19:34:56.000Z,96.20
2023-01-26T19:39:55.000Z,96.30
2023-01-26T19:44:55.000Z,96.36
2023-01-26T19:49:56.000Z,96.20
2023-01-26T19:54:55.000Z,96.59
2023-01-26T19:59:59.000Z,96.79
2023-01-26T20:04:55.000Z,96.56
2023-01-26T20:09:55.000Z,96.79
2023-01-26T20:14:55.000Z,97.05
2023-01-26T20:19:55.000Z,96.97
2023-01-26T20:24:56.000Z,97.48
2023-01-26T20:29:56.000Z,97.36
2023-01-26T20:34:56.000Z,97.62
2023-01-26T20:39:55.000Z,98.05
2023-01-26T20:44:55.000Z,97.97
2023-01-26T20:49:55.000Z,98.26
2023-01-26T20:55:06.000Z,98.26
2023-01-26T21:00:17.000Z,98.26
2023-01-26T21:05:34.000Z,98.39
2023-01-26T21:10:00.000Z,98.48
2023-01-26T21:15:09.000Z,98.77
2023-01-26T21:20:15.000Z,98.77
2023-01-26T21:24:56.000Z,98.88
2023-01-26T21:30:25.000Z,98.88
2023-01-26T21:35:07.000Z,98.54
2023-01-26T21:39:57.000Z,98.42
2023-01-26T21:44:55.000Z,98.28
2023-01-26T21:49:56.000Z,98.23
2023-01-26T21:54:56.000Z,98.16
2023-01-26T21:59:56.000Z,98.08
2023-01-26T22:04:56.000Z,98.39
2023-01-26T22:10:02.000Z,98.03
2023-01-26T22:15:01.000Z,98.05
2023-01-26T22:19:40.000Z,98.05
2023-01-26T22:24:56.000Z,98.05
2023-01-26T22:30:26.000Z,97.97
2023-01-26T22:34:57.000Z,98.28
2023-01-26T22:39:56.000Z,98.48
2023-01-26T22:45:00.000Z,98.31
2023-01-26T22:49:41.000Z,98.42
2023-01-26T22:54:58.000Z,98.26
2023-01-26T23:00:02.000Z,98.16
2023-01-26T23:05:25.000Z,98.23
2023-01-26T23:09:56.000Z,98.08
2023-01-26T23:14:56.000Z,98.34
2023-01-26T23:19:57.000Z,98.31
2023-01-26T23:24:55.000Z,98.48
2023-01-26T23:29:58.000Z,98.42
2023-01-26T23:35:13.000Z,98.68
2023-01-26T23:40:02.000Z,98.68
2023-01-26T23:45:11.000Z,98.91
2023-01-26T23:49:40.000Z,98.97
2023-01-26T23:55:10.000Z,99.20
2023-01-26T23:59:57.000Z,99.18
